Terminal Aerodrome Forecast
Issued by NWS Grand Forks, ND

Home | Current Version | Previous Version | Text Only | Print | Product List | Glossary On
Versions: 1 2 3 4 5 6 7 8 9 10 11 12 13 14 15 16 17 18
866
FTUS43 KFGF 301733
TAFFAR
TAF
KFAR 301733Z 3018/3118 18007KT P6SM SCT250
     FM302300 15009KT P6SM BKN090
     FM310300 12009KT P6SM -TSRA BKN050CB
     FM311000 19010KT P6SM BKN050
     FM311500 21013G18KT P6SM SCT060=

USA.gov is the U.S. government's official web portal to all federal, state and local government web resources and services.